This is the latest recevied weather packets stored in our database for station/object DM2KB-13. If no packets are shown the sender has not sent any weather packets the latest 10 day(s).
| Time | Temp. | Humidity | Pressure | Rain* | Wind** | Luminosity | Snow |
|---|---|---|---|---|---|---|---|
| 1777753287 | 15° C | 93% | 1014.4 hPa | 3.05 mm | - | 0 W/m² | - |
| 1777752987 | 15° C | 93% | 1014.9 hPa | 2.79 mm | - | 0 W/m² | - |
| 1777752686 | 15° C | 92% | 1014.7 hPa | 3.05 mm | - | 0 W/m² | - |
| 1777752386 | 15° C | 92% | 1014.4 hPa | 3.56 mm | - | 0 W/m² | - |
| 1777752086 | 15° C | 92% | 1014.3 hPa | 3.56 mm | - | 0 W/m² | - |
| 1777751785 | 15° C | 91% | 1014.4 hPa | 3.81 mm | - | 0 W/m² | - |
| 1777751485 | 15.56° C | 91% | 1014.5 hPa | 4.06 mm | - | 0 W/m² | - |
| 1777751185 | 15.56° C | 90% | 1014.7 hPa | 4.06 mm | - | 0 W/m² | - |
| 1777750884 | 15.56° C | 89% | 1015.2 hPa | 3.81 mm | - | 0 W/m² | - |
| 1777750584 | 15.56° C | 88% | 1015.3 hPa | 4.06 mm | - | 0 W/m² | - |
| 1777750284 | 15.56° C | 88% | 1015.2 hPa | 4.06 mm | - | 0 W/m² | - |
| 1777749984 | 16.11° C | 88% | 1015.3 hPa | 3.81 mm | - | 0 W/m² | - |
| 1777749683 | 16.11° C | 88% | 1015 hPa | 4.32 mm | - | 0 W/m² | - |
| 1777749383 | 16.67° C | 89% | 1015.2 hPa | 4.32 mm | - | 0 W/m² | - |
| 1777749083 | 16.67° C | 89% | 1015 hPa | 4.06 mm | - | 0 W/m² | - |
| 1777748783 | 16.67° C | 88% | 1014.3 hPa | 3.56 mm | - | 0 W/m² | - |
| 1777748482 | 17.22° C | 87% | 1013.6 hPa | 3.3 mm | - | 0 W/m² | - |
| 1777748182 | 17.22° C | 84% | 1013.5 hPa | 3.05 mm | - | 0 W/m² | - |
| 1777747882 | 17.22° C | 83% | 1013.3 hPa | 2.54 mm | - | 0 W/m² | - |
| 1777747581 | 17.78° C | 81% | 1013.2 hPa | 2.29 mm | - | 0 W/m² | - |
| 1777747281 | 18.33° C | 79% | 1013.1 hPa | 2.03 mm | - | 0 W/m² | - |
| 1777746981 | 19.44° C | 75% | 1012.9 hPa | 1.52 mm | - | 0 W/m² | - |
| 1777746681 | 20° C | 74% | 1013.2 hPa | 1.27 mm | - | 0 W/m² | - |
| 1777746380 | 21.11° C | 74% | 1014.1 hPa | 0.76 mm | - | 0 W/m² | - |
| 1777746080 | 22.22° C | 69% | 1014 hPa | 0 mm | - | 0 W/m² | - |
* Rain latest hour (hover to see other rain measurements)
** Current wind speed in m/s (hover to see current wind gust speed)